Aeroporto :
LOGIN :

Iscrizione | Disclaimer

   EN    FR    IT 

 










Sommario :    VFR   VFR Marginale   IFR   IFR Intensivo   IFR Molto Intensivo
Visibilità : 
Base nubi : 
>= 8 km
>= 3000ft
5 / 8 km
1000 / 3000 ft
1500m / 5 km
500 / 1000 ft
800 / 1500m
200 / 500 ft
< 800m
< 200 ft
Simboli :   Temporali  Nebbia  Neve Forte  Precipitazioni Forti  Vento > 20 kt
SIGMETs :   Varie  Temporali  Ghiacco  Turbolenza  Onda orograficha  Ceneri Vulcaniche






- Altitudine del aeroporto : 3 ft
- Codice IATA : DHR


EHKD - Den Helder De Kooy

ULTIMO METAR :
  • 070401Z AUTO 26015KT 230V290 9999 -SHRA BKN015CB SCT035 BKN040 11/09 Q0998 WHT

METARs OBSOLETI :
  • 070325Z AUTO 27018KT 9999 -RADZ SCT015CB BKN041 OVC048 11/08 Q0997 WHT
  • 070305Z AUTO 26017KT 230V290 9999 FEW011 FEW015CB SCT031 BKN046 11/08 Q0997 BLU
  • 070255Z AUTO 26016KT 230V290 9999 FEW015CB SCT016 BKN057 11/08 Q0997 WHT
  • 070236Z AUTO 25016KT 220V280 9999 FEW013 FEW015CB SCT032 BKN055 11/08 Q0996 BLU
  • 070231Z AUTO 25017KT 220V280 9999 FEW013 BKN015CB BKN024 11/09 Q0996 WHT
  • 070217Z AUTO 25016KT 220V280 9999 FEW014 FEW015CB SCT016 BKN021 11/09 Q0996 WHT
  • 070213Z AUTO 25015KT 9999 FEW014 FEW015CB SCT016 BKN021 12/09 Q0996 WHT
  • 070155Z AUTO 25015KT 9999 FEW015CB SCT021 BKN029 11/08 Q0996 WHT
  • 070133Z AUTO 24014KT 9999 FEW015CB SCT018 BKN026 11/08 Q0996 WHT
  • 070125Z AUTO 23015KT 200V260 9999 FEW013 FEW015CB SCT016 BKN020 11/09 Q0996 WHT
  • 070110Z AUTO 24018KT 200V260 9999 -RA FEW014 FEW015CB SCT021 BKN026 11/09 Q0996 WHT

TAF TAF EHKD
Valido dal 07 a 01 ore il 07 a 13 ore UTC


070017Z 0701/0713 23015G25KT 9999 SCT025 BKN035
TEMPO 0617/0712 FEW015 SCT020CB BKN025
BECMG 0702/0705 30015G25KT



MetMap, La meteo Aeronautica in un colpo d'occhio ! - Copyright ORBIFLY Dicembre 2007 - Disclaimer

ORBIFLY MET'MAP TEAM :

Programmazione e sviluppo : Alexandra Zaïnal
Concezione : Baudouin d'Aumeries
Aiuto per la programmazione : Marc-Olivier Méhu
Supporto tecnico e logistico : Manuel Goepfert
Aiuto per la traduzione : Arnaldo La Scala

Contatto : metmap@orbifly.com




FONTI E CREDITI :

   NOAA